createdAt,value
2022-11-17T00:01:24.019Z,9.00
2022-11-17T00:03:50.954Z,9.01
2022-11-17T00:06:20.250Z,9.01
2022-11-17T00:08:47.313Z,9.03
2022-11-17T00:11:13.954Z,9.03
2022-11-17T00:13:58.925Z,9.03
2022-11-17T00:16:25.254Z,9.04
2022-11-17T00:19:10.230Z,9.05
2022-11-17T00:21:36.661Z,9.10
2022-11-17T00:24:03.170Z,9.09
2022-11-17T00:26:34.473Z,9.12
2022-11-17T00:29:04.412Z,9.14
2022-11-17T00:31:51.795Z,9.15
2022-11-17T00:34:23.313Z,9.16
2022-11-17T00:36:54.263Z,9.17
2022-11-17T00:39:22.057Z,9.17
2022-11-17T00:41:48.760Z,9.17
2022-11-17T00:44:15.617Z,9.16
2022-11-17T00:46:43.248Z,9.15
2022-11-17T00:49:11.102Z,9.18
2022-11-17T00:51:38.182Z,9.19
2022-11-17T00:54:05.845Z,9.18
2022-11-17T00:56:32.667Z,9.19
2022-11-17T00:58:59.309Z,9.18
2022-11-17T01:01:25.763Z,9.17
2022-11-17T01:04:02.596Z,9.19
2022-11-17T01:06:44.180Z,9.20
2022-11-17T01:09:16.378Z,9.19
2022-11-17T01:11:43.769Z,9.20
2022-11-17T01:14:13.977Z,9.21
2022-11-17T01:16:40.330Z,9.23
2022-11-17T01:19:07.040Z,9.23
2022-11-17T01:21:33.498Z,9.23
2022-11-17T01:24:01.558Z,9.23
2022-11-17T01:26:34.124Z,9.23
2022-11-17T01:29:01.914Z,9.23
2022-11-17T01:31:34.615Z,9.24
2022-11-17T01:34:01.494Z,9.25
2022-11-17T01:36:51.544Z,9.26
2022-11-17T01:39:17.989Z,9.26
2022-11-17T01:41:44.313Z,9.27
2022-11-17T01:44:41.841Z,9.29
2022-11-17T01:47:17.358Z,9.31
2022-11-17T01:49:44.700Z,9.33
2022-11-17T01:52:12.301Z,9.38
2022-11-17T01:54:41.645Z,9.40
2022-11-17T01:57:19.192Z,9.43
2022-11-17T02:00:07.949Z,9.46
2022-11-17T02:02:35.668Z,9.47
2022-11-17T02:05:10.037Z,9.47
2022-11-17T02:07:39.270Z,9.48
2022-11-17T02:10:06.304Z,9.52
2022-11-17T02:12:35.373Z,9.54
2022-11-17T02:15:03.328Z,9.60
2022-11-17T02:17:37.412Z,9.61
2022-11-17T02:20:13.514Z,9.61
2022-11-17T02:22:55.420Z,9.61
2022-11-17T02:25:46.016Z,9.59
2022-11-17T02:28:20.436Z,9.61
2022-11-17T02:30:52.634Z,9.60
2022-11-17T02:33:30.005Z,9.60
2022-11-17T02:36:04.661Z,9.61
2022-11-17T02:39:01.594Z,9.60
2022-11-17T02:41:38.165Z,9.60
2022-11-17T02:44:18.973Z,9.63
2022-11-17T02:46:55.102Z,9.62
2022-11-17T02:49:27.199Z,9.62
2022-11-17T02:51:56.900Z,9.64
2022-11-17T02:54:26.719Z,9.66
2022-11-17T02:56:53.152Z,9.67
2022-11-17T02:59:25.441Z,9.66
2022-11-17T03:02:18.158Z,9.65
2022-11-17T03:04:50.719Z,9.65
2022-11-17T03:07:45.810Z,9.63
2022-11-17T03:10:19.546Z,9.65
2022-11-17T03:13:21.192Z,9.67
2022-11-17T03:15:55.201Z,9.71
2022-11-17T03:18:35.081Z,9.71
2022-11-17T03:21:11.197Z,9.70
2022-11-17T03:23:46.703Z,9.70
2022-11-17T03:26:16.969Z,9.67
2022-11-17T03:28:46.385Z,9.72
2022-11-17T03:31:15.281Z,9.70
2022-11-17T03:33:45.420Z,9.70
2022-11-17T03:36:15.791Z,9.73
2022-11-17T03:38:50.163Z,9.79
2022-11-17T03:41:18.300Z,9.79
2022-11-17T03:43:49.465Z,9.74
2022-11-17T03:46:19.974Z,9.75
2022-11-17T03:49:11.631Z,9.79
2022-11-17T03:51:38.276Z,9.83
2022-11-17T03:54:05.443Z,9.83
2022-11-17T03:56:57.492Z,9.83
2022-11-17T03:59:26.540Z,9.84
2022-11-17T04:01:53.586Z,9.86
2022-11-17T04:04:21.782Z,9.86
2022-11-17T04:06:52.090Z,9.86
2022-11-17T04:09:23.973Z,9.85
2022-11-17T04:12:09.535Z,9.85
2022-11-17T04:14:54.338Z,9.85
2022-11-17T04:17:20.744Z,9.78
2022-11-17T04:19:48.157Z,9.83
2022-11-17T04:22:14.485Z,9.80
2022-11-17T04:24:40.784Z,9.80
2022-11-17T04:27:25.921Z,9.86
2022-11-17T04:29:52.290Z,9.86
2022-11-17T04:32:18.602Z,9.79
2022-11-17T04:34:44.913Z,9.78
2022-11-17T04:37:17.190Z,9.78
2022-11-17T04:39:45.369Z,9.76
2022-11-17T04:42:11.938Z,9.70
2022-11-17T04:44:38.257Z,9.69
2022-11-17T04:47:06.003Z,9.70
2022-11-17T04:49:32.992Z,9.70
2022-11-17T04:51:59.384Z,9.72
2022-11-17T04:54:25.760Z,9.72
2022-11-17T04:56:53.255Z,9.70
2022-11-17T04:59:19.797Z,9.76
2022-11-17T05:01:46.660Z,9.70
2022-11-17T05:04:35.714Z,9.72
2022-11-17T05:07:02.412Z,9.72
2022-11-17T05:09:28.745Z,9.77
2022-11-17T05:12:13.769Z,9.79
2022-11-17T05:14:40.184Z,9.85
2022-11-17T05:17:10.019Z,9.88
2022-11-17T05:19:44.257Z,9.89
2022-11-17T05:22:35.073Z,9.91
2022-11-17T05:25:02.020Z,9.93
2022-11-17T05:27:28.394Z,9.91
2022-11-17T05:29:54.814Z,9.91
2022-11-17T05:32:21.310Z,9.92
2022-11-17T05:34:47.903Z,9.93
2022-11-17T05:37:14.242Z,9.89
2022-11-17T05:39:40.577Z,9.86
2022-11-17T05:42:06.967Z,9.84
2022-11-17T05:44:33.386Z,9.80
2022-11-17T05:46:59.712Z,9.77
2022-11-17T05:49:26.097Z,9.74
2022-11-17T05:51:53.158Z,9.72
2022-11-17T05:54:19.964Z,9.72
2022-11-17T05:56:52.592Z,9.71
2022-11-17T05:59:45.698Z,9.70
2022-11-17T06:02:28.995Z,9.70
2022-11-17T06:04:55.438Z,9.69
2022-11-17T06:07:22.042Z,9.68
2022-11-17T06:09:48.873Z,9.69
2022-11-17T06:12:15.495Z,9.68
2022-11-17T06:14:42.307Z,9.69
2022-11-17T06:17:21.811Z,9.70
2022-11-17T06:20:02.897Z,9.71
2022-11-17T06:22:30.291Z,9.70
2022-11-17T06:24:58.311Z,9.72
2022-11-17T06:27:25.597Z,9.76
2022-11-17T06:29:52.675Z,9.79
2022-11-17T06:32:19.697Z,9.78
2022-11-17T06:34:54.865Z,9.83
2022-11-17T06:37:22.894Z,9.81
2022-11-17T06:39:49.265Z,9.81
2022-11-17T06:42:15.552Z,9.84
2022-11-17T06:44:42.162Z,9.83
2022-11-17T06:47:08.463Z,9.84
2022-11-17T06:49:34.758Z,9.83
2022-11-17T06:52:01.087Z,9.82
2022-11-17T06:54:27.484Z,9.82
2022-11-17T06:56:55.302Z,9.83
2022-11-17T06:59:21.688Z,9.83
2022-11-17T07:01:48.189Z,9.84
2022-11-17T07:04:14.613Z,9.83
2022-11-17T07:06:41.044Z,9.83
2022-11-17T07:09:07.621Z,9.84
2022-11-17T07:11:36.162Z,9.84
2022-11-17T07:14:02.815Z,9.81
2022-11-17T07:16:30.681Z,9.81
2022-11-17T07:18:59.277Z,9.82
2022-11-17T07:21:25.742Z,9.82
2022-11-17T07:23:52.224Z,9.80
2022-11-17T07:26:19.280Z,9.81
2022-11-17T07:28:45.721Z,9.82
2022-11-17T07:31:12.166Z,9.80
2022-11-17T07:33:38.567Z,9.79
2022-11-17T07:36:06.948Z,9.75
2022-11-17T07:38:35.279Z,9.72
2022-11-17T07:41:03.259Z,9.71
2022-11-17T07:43:30.158Z,9.70
2022-11-17T07:45:56.654Z,9.70
2022-11-17T07:48:23.048Z,9.69
2022-11-17T07:50:49.554Z,9.70
2022-11-17T07:53:15.986Z,9.68
2022-11-17T07:55:42.352Z,9.65
2022-11-17T07:58:08.734Z,9.63
2022-11-17T08:00:35.230Z,9.59
2022-11-17T08:03:04.033Z,9.56
2022-11-17T08:05:32.219Z,9.52
2022-11-17T08:08:00.173Z,9.46
2022-11-17T08:10:28.161Z,9.42
2022-11-17T08:12:54.715Z,9.39
2022-11-17T08:15:22.107Z,9.36
2022-11-17T08:17:53.351Z,9.34
2022-11-17T08:20:19.967Z,9.32
2022-11-17T08:22:46.944Z,9.33
2022-11-17T08:25:14.059Z,9.33
2022-11-17T08:27:41.440Z,9.32
2022-11-17T08:30:09.480Z,9.33
2022-11-17T08:32:36.669Z,9.33
2022-11-17T08:35:05.742Z,9.34
2022-11-17T08:37:32.312Z,9.33
2022-11-17T08:39:58.681Z,9.31
2022-11-17T08:42:25.065Z,9.29
2022-11-17T08:44:51.460Z,9.27
2022-11-17T08:47:17.807Z,9.27
2022-11-17T08:49:44.208Z,9.25
2022-11-17T08:52:10.557Z,9.25
2022-11-17T08:54:37.038Z,9.24
2022-11-17T08:57:03.583Z,9.26
2022-11-17T08:59:30.006Z,9.25
2022-11-17T09:01:56.464Z,9.23
2022-11-17T09:04:22.837Z,9.20
2022-11-17T09:06:49.179Z,9.21
2022-11-17T09:09:15.588Z,9.24
2022-11-17T09:11:42.110Z,9.34
2022-11-17T09:14:08.663Z,9.44
2022-11-17T09:16:36.096Z,9.52
2022-11-17T09:19:02.749Z,9.53
2022-11-17T09:21:31.250Z,9.50
2022-11-17T09:23:57.595Z,9.48
2022-11-17T09:26:23.998Z,9.47
2022-11-17T09:28:50.461Z,9.43
2022-11-17T09:31:19.665Z,9.42
2022-11-17T09:33:46.618Z,9.44
2022-11-17T09:36:14.703Z,9.46
2022-11-17T09:38:41.249Z,9.40
2022-11-17T09:41:31.540Z,9.36
2022-11-17T09:44:46.243Z,9.37
2022-11-17T09:47:29.473Z,9.42
2022-11-17T09:49:59.363Z,9.42
2022-11-17T09:52:26.060Z,9.37
2022-11-17T09:54:56.878Z,9.36
2022-11-17T09:57:28.860Z,9.36
2022-11-17T10:00:12.600Z,9.43
2022-11-17T10:02:39.427Z,9.41
2022-11-17T10:05:06.777Z,9.40
2022-11-17T10:07:34.653Z,9.36
2022-11-17T10:10:03.417Z,9.34
2022-11-17T10:12:47.564Z,9.26
2022-11-17T10:15:29.401Z,9.23
2022-11-17T10:17:55.771Z,9.21
2022-11-17T10:20:22.197Z,9.22
2022-11-17T10:22:50.577Z,9.19
2022-11-17T10:25:36.623Z,9.22
2022-11-17T10:28:03.827Z,9.24
2022-11-17T10:30:30.142Z,9.25
2022-11-17T10:32:58.589Z,9.23
2022-11-17T10:35:27.973Z,9.24
2022-11-17T10:38:17.893Z,9.21
2022-11-17T10:40:47.414Z,9.18
2022-11-17T10:43:13.833Z,9.18
2022-11-17T10:45:51.224Z,9.16
2022-11-17T10:48:36.219Z,9.15
2022-11-17T10:51:04.521Z,9.20
2022-11-17T10:53:32.874Z,9.23
2022-11-17T10:56:07.083Z,9.31
2022-11-17T10:58:55.227Z,9.43
2022-11-17T11:01:36.347Z,9.50
2022-11-17T11:04:04.421Z,9.51
2022-11-17T11:06:33.331Z,9.47
2022-11-17T11:09:10.463Z,9.53
2022-11-17T11:11:56.265Z,9.51
2022-11-17T11:14:36.671Z,9.47
2022-11-17T11:17:11.416Z,9.46
2022-11-17T11:19:37.799Z,9.46
2022-11-17T11:22:26.227Z,9.46
2022-11-17T11:25:04.649Z,9.47
2022-11-17T11:27:37.092Z,9.47
2022-11-17T11:30:11.791Z,9.44
2022-11-17T11:33:01.851Z,9.39
2022-11-17T11:35:56.955Z,9.37
2022-11-17T11:38:36.698Z,9.38
2022-11-17T11:41:28.056Z,9.40
2022-11-17T11:44:17.351Z,9.45
2022-11-17T11:46:52.223Z,9.44
2022-11-17T11:49:24.523Z,9.44
2022-11-17T11:51:51.976Z,9.43
2022-11-17T11:54:44.900Z,9.33
2022-11-17T11:57:16.835Z,9.31
2022-11-17T11:59:52.285Z,9.34
2022-11-17T12:02:44.057Z,9.31
2022-11-17T12:05:25.296Z,9.29
2022-11-17T12:08:31.856Z,9.25
2022-11-17T12:11:32.370Z,9.22
2022-11-17T12:14:01.985Z,9.22
2022-11-17T12:16:36.063Z,9.21
2022-11-17T12:19:22.903Z,9.23
2022-11-17T12:21:55.343Z,9.24
2022-11-17T12:24:33.424Z,9.24
2022-11-17T12:27:34.872Z,9.24
2022-11-17T12:30:02.747Z,9.24
2022-11-17T12:32:44.392Z,9.25
2022-11-17T12:35:31.544Z,9.26
2022-11-17T12:38:16.389Z,9.24
2022-11-17T12:40:46.865Z,9.24
2022-11-17T12:43:23.399Z,9.27
2022-11-17T12:45:55.866Z,9.25
2022-11-17T12:48:34.820Z,9.26
2022-11-17T12:51:31.140Z,9.25
2022-11-17T12:54:22.263Z,9.25
2022-11-17T12:57:00.838Z,9.27
2022-11-17T13:00:01.203Z,9.29
2022-11-17T13:02:45.780Z,9.29
2022-11-17T13:05:21.215Z,9.27
2022-11-17T13:07:47.725Z,9.25
2022-11-17T13:10:43.351Z,9.22
2022-11-17T13:13:10.627Z,9.21
2022-11-17T13:15:37.912Z,9.21
2022-11-17T13:18:11.025Z,9.23
2022-11-17T13:20:38.899Z,9.23
2022-11-17T13:23:14.393Z,9.25
2022-11-17T13:25:40.855Z,9.25
2022-11-17T13:28:25.485Z,9.25
2022-11-17T13:30:51.888Z,9.23
2022-11-17T13:33:22.765Z,9.22
2022-11-17T13:35:51.199Z,9.21
2022-11-17T13:38:17.493Z,9.18
2022-11-17T13:40:45.283Z,9.17
2022-11-17T13:43:16.986Z,9.16
2022-11-17T13:45:45.651Z,9.15
2022-11-17T13:48:33.751Z,9.16
2022-11-17T13:51:28.247Z,9.17
2022-11-17T13:54:13.345Z,9.18
2022-11-17T13:56:51.398Z,9.17
2022-11-17T13:59:32.889Z,9.15
2022-11-17T14:02:31.617Z,9.14
2022-11-17T14:05:24.166Z,9.14
2022-11-17T14:07:52.876Z,9.15
2022-11-17T14:10:25.322Z,9.16
2022-11-17T14:13:08.431Z,9.17
2022-11-17T14:15:42.184Z,9.19
2022-11-17T14:18:27.844Z,9.23
2022-11-17T14:21:13.574Z,9.27
2022-11-17T14:23:41.270Z,9.27
2022-11-17T14:26:18.227Z,9.29
2022-11-17T14:28:45.424Z,9.30
2022-11-17T14:31:13.468Z,9.32
2022-11-17T14:33:40.388Z,9.36
2022-11-17T14:36:13.097Z,9.36
2022-11-17T14:38:39.685Z,9.38
2022-11-17T14:41:06.340Z,9.38
2022-11-17T14:43:32.795Z,9.41
2022-11-17T14:45:59.176Z,9.41
2022-11-17T14:48:26.431Z,9.41
2022-11-17T14:50:57.371Z,9.41
2022-11-17T14:53:25.036Z,9.42
2022-11-17T14:55:51.735Z,9.40
2022-11-17T14:58:18.461Z,9.41
2022-11-17T15:00:44.846Z,9.43
2022-11-17T15:03:11.263Z,9.42
2022-11-17T15:05:45.419Z,9.42
2022-11-17T15:08:12.244Z,9.44
2022-11-17T15:10:43.237Z,9.46
2022-11-17T15:13:09.663Z,9.50
2022-11-17T15:15:36.000Z,9.52
2022-11-17T15:18:02.420Z,9.54
2022-11-17T15:20:29.790Z,9.53
2022-11-17T15:23:01.839Z,9.53
2022-11-17T15:25:29.665Z,9.49
2022-11-17T15:27:56.645Z,9.43
2022-11-17T15:30:23.170Z,9.47
2022-11-17T15:32:49.576Z,9.46
2022-11-17T15:35:16.114Z,9.47
2022-11-17T15:37:42.566Z,9.50
2022-11-17T15:40:09.588Z,9.56
2022-11-17T15:42:35.922Z,9.58
2022-11-17T15:45:02.280Z,9.53
2022-11-17T15:47:28.592Z,9.58
2022-11-17T15:49:58.339Z,9.62
2022-11-17T15:52:41.595Z,9.54
2022-11-17T15:55:11.532Z,9.56
2022-11-17T15:57:37.898Z,9.58
2022-11-17T16:00:06.706Z,9.55
2022-11-17T16:02:33.086Z,9.55
2022-11-17T16:04:59.407Z,9.54
2022-11-17T16:07:25.834Z,9.48
2022-11-17T16:09:52.730Z,9.50
2022-11-17T16:12:19.093Z,9.47
2022-11-17T16:14:45.535Z,9.49
2022-11-17T16:17:11.924Z,9.54
2022-11-17T16:19:38.253Z,9.48
2022-11-17T16:22:04.567Z,9.53
2022-11-17T16:24:30.903Z,9.57
2022-11-17T16:26:57.361Z,9.50
2022-11-17T16:29:24.730Z,9.51
2022-11-17T16:31:51.091Z,9.45
2022-11-17T16:34:18.791Z,9.46
2022-11-17T16:36:45.255Z,9.53
2022-11-17T16:39:17.043Z,9.48
2022-11-17T16:41:45.595Z,9.46
2022-11-17T16:44:15.489Z,9.40
2022-11-17T16:46:44.546Z,9.46
2022-11-17T16:49:13.399Z,9.51
2022-11-17T16:51:40.304Z,9.57
2022-11-17T16:54:12.055Z,9.57
2022-11-17T16:56:38.388Z,9.60
2022-11-17T16:59:04.744Z,9.52
2022-11-17T17:01:36.082Z,9.52
2022-11-17T17:04:06.274Z,9.60
2022-11-17T17:06:33.595Z,9.65
2022-11-17T17:09:02.996Z,9.71
2022-11-17T17:11:31.694Z,9.76
2022-11-17T17:14:00.285Z,9.81
2022-11-17T17:16:26.981Z,9.84
2022-11-17T17:18:59.455Z,9.81
2022-11-17T17:21:26.938Z,9.81
2022-11-17T17:23:53.521Z,9.80
2022-11-17T17:26:22.411Z,9.77
2022-11-17T17:28:51.244Z,9.69
2022-11-17T17:31:21.714Z,9.77
2022-11-17T17:33:50.276Z,9.76
2022-11-17T17:36:19.719Z,9.77
2022-11-17T17:38:51.661Z,9.85
2022-11-17T17:41:22.448Z,9.81
2022-11-17T17:43:54.908Z,9.72
2022-11-17T17:46:21.247Z,9.75
2022-11-17T17:48:47.562Z,9.67
2022-11-17T17:51:16.495Z,9.62
2022-11-17T17:53:43.135Z,9.63
2022-11-17T17:56:12.732Z,9.62
2022-11-17T17:58:40.585Z,9.58
2022-11-17T18:01:14.329Z,9.59
2022-11-17T18:03:43.266Z,9.66
2022-11-17T18:06:09.837Z,9.74
2022-11-17T18:08:36.892Z,9.70
2022-11-17T18:11:06.134Z,9.73
2022-11-17T18:13:34.449Z,9.74
2022-11-17T18:16:09.373Z,9.73
2022-11-17T18:18:37.008Z,9.75
2022-11-17T18:21:11.494Z,9.76
2022-11-17T18:23:38.342Z,9.74
2022-11-17T18:26:12.603Z,9.76
2022-11-17T18:28:39.525Z,9.74
2022-11-17T18:31:07.518Z,9.72
2022-11-17T18:33:34.466Z,9.77
2022-11-17T18:36:09.235Z,9.68
2022-11-17T18:38:36.659Z,9.63
2022-11-17T18:41:11.163Z,9.64
2022-11-17T18:43:38.183Z,9.62
2022-11-17T18:46:14.090Z,9.53
2022-11-17T18:48:42.720Z,9.54
2022-11-17T18:51:20.599Z,9.55
2022-11-17T18:53:49.318Z,9.40
2022-11-17T18:56:17.979Z,9.34
2022-11-17T18:58:44.530Z,9.26
2022-11-17T19:01:14.619Z,9.28
2022-11-17T19:03:42.778Z,9.29
2022-11-17T19:06:10.460Z,9.32
2022-11-17T19:08:37.677Z,9.24
2022-11-17T19:11:06.612Z,9.23
2022-11-17T19:13:35.170Z,9.17
2022-11-17T19:16:06.278Z,9.20
2022-11-17T19:18:33.310Z,9.23
2022-11-17T19:21:11.498Z,9.17
2022-11-17T19:23:39.983Z,9.11
2022-11-17T19:26:15.451Z,9.07
2022-11-17T19:28:42.564Z,9.12
2022-11-17T19:31:11.530Z,9.10
2022-11-17T19:33:39.506Z,9.08
2022-11-17T19:36:10.233Z,9.05
2022-11-17T19:38:38.644Z,9.03
2022-11-17T19:41:07.816Z,8.93
2022-11-17T19:43:36.957Z,8.84
2022-11-17T19:46:09.332Z,8.87
2022-11-17T19:48:35.754Z,8.92
2022-11-17T19:51:12.889Z,8.93
2022-11-17T19:53:39.826Z,8.94
2022-11-17T19:56:06.468Z,8.94
2022-11-17T19:58:32.834Z,8.94
2022-11-17T20:01:06.815Z,8.92
2022-11-17T20:03:34.378Z,8.87
2022-11-17T20:06:01.385Z,8.86
2022-11-17T20:08:31.347Z,8.85
2022-11-17T20:11:07.121Z,8.91
2022-11-17T20:13:34.374Z,8.90
2022-11-17T20:16:02.409Z,8.97
2022-11-17T20:18:29.921Z,8.95
2022-11-17T20:20:56.536Z,8.90
2022-11-17T20:23:23.188Z,8.84
2022-11-17T20:25:49.707Z,8.78
2022-11-17T20:28:16.143Z,8.74
2022-11-17T20:30:43.126Z,8.75
2022-11-17T20:33:09.474Z,8.78
2022-11-17T20:35:37.105Z,8.78
2022-11-17T20:38:04.156Z,8.82
2022-11-17T20:40:31.940Z,8.82
2022-11-17T20:42:58.372Z,8.77
2022-11-17T20:45:24.888Z,8.76
2022-11-17T20:47:51.256Z,8.74
2022-11-17T20:50:17.664Z,8.74
2022-11-17T20:52:44.086Z,8.72
2022-11-17T20:55:10.496Z,8.72
2022-11-17T20:57:36.858Z,8.71
2022-11-17T21:00:03.777Z,8.73
2022-11-17T21:02:30.136Z,8.72
2022-11-17T21:04:56.540Z,8.67
2022-11-17T21:07:22.980Z,8.64
2022-11-17T21:09:49.379Z,8.69
2022-11-17T21:12:15.751Z,8.61
2022-11-17T21:14:42.062Z,8.54
2022-11-17T21:17:28.439Z,8.55
2022-11-17T21:19:54.771Z,8.53
2022-11-17T21:22:21.093Z,8.44
2022-11-17T21:24:47.400Z,8.42
2022-11-17T21:27:14.846Z,8.42
2022-11-17T21:29:41.232Z,8.46
2022-11-17T21:32:07.868Z,8.42
2022-11-17T21:34:34.289Z,8.42
2022-11-17T21:37:00.641Z,8.35
2022-11-17T21:39:27.019Z,8.38
2022-11-17T21:41:53.399Z,8.39
2022-11-17T21:44:19.847Z,8.35
2022-11-17T21:46:46.217Z,8.36
2022-11-17T21:49:12.612Z,8.35
2022-11-17T21:51:39.085Z,8.31
2022-11-17T21:54:08.256Z,8.24
2022-11-17T21:56:35.977Z,8.23
2022-11-17T21:59:05.501Z,8.20
2022-11-17T22:01:32.905Z,8.15
2022-11-17T22:03:59.474Z,8.10
2022-11-17T22:06:26.371Z,8.06
2022-11-17T22:08:54.675Z,8.03
2022-11-17T22:11:36.514Z,8.01
2022-11-17T22:14:21.980Z,7.99
2022-11-17T22:16:53.706Z,7.97
2022-11-17T22:19:22.389Z,7.89
2022-11-17T22:21:51.143Z,7.91
2022-11-17T22:24:17.959Z,8.01
2022-11-17T22:26:45.399Z,7.95
2022-11-17T22:29:15.417Z,7.90
2022-11-17T22:31:42.468Z,7.88
2022-11-17T22:34:08.800Z,7.91
2022-11-17T22:36:35.138Z,7.84
2022-11-17T22:39:01.566Z,7.78
2022-11-17T22:41:27.944Z,7.77
2022-11-17T22:43:56.552Z,7.78
2022-11-17T22:46:25.894Z,7.75
2022-11-17T22:48:52.946Z,7.68
2022-11-17T22:51:38.523Z,7.73
2022-11-17T22:54:06.522Z,7.72
2022-11-17T22:56:33.792Z,7.58
2022-11-17T22:59:00.959Z,7.46
2022-11-17T23:01:27.608Z,7.48
2022-11-17T23:03:54.050Z,7.49
2022-11-17T23:06:22.468Z,7.44
2022-11-17T23:08:48.864Z,7.50
2022-11-17T23:11:36.179Z,7.44
2022-11-17T23:14:01.698Z,7.47
2022-11-17T23:16:28.166Z,7.46
2022-11-17T23:18:56.884Z,7.40
2022-11-17T23:21:23.984Z,7.34
2022-11-17T23:23:50.734Z,7.30
2022-11-17T23:26:17.524Z,7.35
2022-11-17T23:28:43.950Z,7.39
2022-11-17T23:31:12.996Z,7.34
2022-11-17T23:33:41.661Z,7.25
2022-11-17T23:36:16.670Z,7.26
2022-11-17T23:38:43.279Z,7.24
2022-11-17T23:41:12.951Z,7.17
2022-11-17T23:43:39.661Z,7.08
2022-11-17T23:46:16.126Z,7.02
2022-11-17T23:48:43.601Z,7.03
2022-11-17T23:51:15.723Z,7.07
2022-11-17T23:53:42.460Z,7.10
2022-11-17T23:56:10.104Z,7.10
2022-11-17T23:58:36.655Z,7.11
